sensor_id;sensor_type;location;lat;lon;timestamp;P1;durP1;ratioP1;P2;durP2;ratioP2
40284;SDS011;25997;50.214;19.354;2022-11-20T00:02:01;232.93;;;126.18;;
40284;SDS011;25997;50.214;19.354;2022-11-20T00:05:04;140.80;;;79.32;;
40284;SDS011;25997;50.214;19.354;2022-11-20T00:08:09;162.50;;;95.82;;
40284;SDS011;25997;50.214;19.354;2022-11-20T00:11:12;95.28;;;60.45;;
40284;SDS011;25997;50.214;19.354;2022-11-20T00:14:16;108.18;;;64.82;;
40284;SDS011;25997;50.214;19.354;2022-11-20T00:17:19;102.63;;;65.82;;
40284;SDS011;25997;50.214;19.354;2022-11-20T00:20:21;87.30;;;57.70;;
40284;SDS011;25997;50.214;19.354;2022-11-20T00:23:25;86.32;;;58.28;;
40284;SDS011;25997;50.214;19.354;2022-11-20T00:26:28;79.40;;;52.95;;
40284;SDS011;25997;50.214;19.354;2022-11-20T00:29:31;87.90;;;52.35;;
40284;SDS011;25997;50.214;19.354;2022-11-20T00:32:33;79.78;;;49.97;;
40284;SDS011;25997;50.214;19.354;2022-11-20T00:35:36;69.35;;;44.97;;
40284;SDS011;25997;50.214;19.354;2022-11-20T00:38:40;62.53;;;44.67;;
40284;SDS011;25997;50.214;19.354;2022-11-20T00:41:42;72.40;;;46.58;;
40284;SDS011;25997;50.214;19.354;2022-11-20T00:44:45;75.35;;;50.80;;
40284;SDS011;25997;50.214;19.354;2022-11-20T00:47:47;141.05;;;89.45;;
40284;SDS011;25997;50.214;19.354;2022-11-20T00:50:50;115.15;;;75.93;;
40284;SDS011;25997;50.214;19.354;2022-11-20T00:53:55;81.25;;;51.88;;
40284;SDS011;25997;50.214;19.354;2022-11-20T00:56:58;109.50;;;69.70;;
40284;SDS011;25997;50.214;19.354;2022-11-20T01:00:00;135.90;;;84.50;;
40284;SDS011;25997;50.214;19.354;2022-11-20T01:03:03;172.27;;;107.88;;
40284;SDS011;25997;50.214;19.354;2022-11-20T01:06:06;96.97;;;63.13;;
40284;SDS011;25997;50.214;19.354;2022-11-20T01:09:13;172.35;;;110.03;;
40284;SDS011;25997;50.214;19.354;2022-11-20T01:12:16;188.45;;;119.75;;
40284;SDS011;25997;50.214;19.354;2022-11-20T01:15:18;123.85;;;84.30;;
40284;SDS011;25997;50.214;19.354;2022-11-20T01:18:21;117.45;;;79.03;;
40284;SDS011;25997;50.214;19.354;2022-11-20T01:21:24;111.13;;;72.30;;
40284;SDS011;25997;50.214;19.354;2022-11-20T01:24:29;110.50;;;73.88;;
40284;SDS011;25997;50.214;19.354;2022-11-20T01:27:31;131.70;;;80.43;;
40284;SDS011;25997;50.214;19.354;2022-11-20T01:30:34;113.07;;;72.22;;
40284;SDS011;25997;50.214;19.354;2022-11-20T01:33:36;115.53;;;69.72;;
40284;SDS011;25997;50.214;19.354;2022-11-20T01:36:39;113.68;;;73.50;;
40284;SDS011;25997;50.214;19.354;2022-11-20T01:39:43;130.27;;;81.80;;
40284;SDS011;25997;50.214;19.354;2022-11-20T01:42:47;107.32;;;66.72;;
40284;SDS011;25997;50.214;19.354;2022-11-20T01:46:17;87.05;;;58.97;;
40284;SDS011;25997;50.214;19.354;2022-11-20T01:49:21;96.15;;;64.00;;
40284;SDS011;25997;50.214;19.354;2022-11-20T01:52:27;89.30;;;58.38;;
40284;SDS011;25997;50.214;19.354;2022-11-20T01:55:36;92.30;;;60.35;;
40284;SDS011;25997;50.214;19.354;2022-11-20T01:58:43;80.50;;;52.75;;
40284;SDS011;25997;50.214;19.354;2022-11-20T02:01:51;67.05;;;46.00;;
40284;SDS011;25997;50.214;19.354;2022-11-20T02:04:54;78.63;;;53.45;;
40284;SDS011;25997;50.214;19.354;2022-11-20T02:08:02;67.93;;;49.42;;
40284;SDS011;25997;50.214;19.354;2022-11-20T02:11:08;69.38;;;48.22;;
40284;SDS011;25997;50.214;19.354;2022-11-20T02:14:10;71.15;;;47.85;;
40284;SDS011;25997;50.214;19.354;2022-11-20T02:17:13;72.05;;;47.35;;
40284;SDS011;25997;50.214;19.354;2022-11-20T02:20:15;64.75;;;44.95;;
40284;SDS011;25997;50.214;19.354;2022-11-20T02:23:19;163.63;;;113.70;;
40284;SDS011;25997;50.214;19.354;2022-11-20T02:26:30;116.05;;;77.13;;
40284;SDS011;25997;50.214;19.354;2022-11-20T02:29:35;113.07;;;75.68;;
40284;SDS011;25997;50.214;19.354;2022-11-20T02:32:40;130.60;;;92.30;;
40284;SDS011;25997;50.214;19.354;2022-11-20T02:35:43;114.53;;;76.70;;
40284;SDS011;25997;50.214;19.354;2022-11-20T02:38:46;68.32;;;47.88;;
40284;SDS011;25997;50.214;19.354;2022-11-20T02:41:53;61.75;;;43.13;;
40284;SDS011;25997;50.214;19.354;2022-11-20T02:44:57;69.13;;;46.80;;
40284;SDS011;25997;50.214;19.354;2022-11-20T02:48:00;115.53;;;78.00;;
40284;SDS011;25997;50.214;19.354;2022-11-20T02:51:02;138.50;;;93.15;;
40284;SDS011;25997;50.214;19.354;2022-11-20T02:54:05;205.52;;;133.68;;
40284;SDS011;25997;50.214;19.354;2022-11-20T02:57:09;205.70;;;130.90;;
40284;SDS011;25997;50.214;19.354;2022-11-20T03:00:12;172.05;;;111.45;;
40284;SDS011;25997;50.214;19.354;2022-11-20T03:03:15;129.68;;;83.82;;
40284;SDS011;25997;50.214;19.354;2022-11-20T03:06:17;91.63;;;62.33;;
40284;SDS011;25997;50.214;19.354;2022-11-20T03:09:20;82.15;;;58.75;;
40284;SDS011;25997;50.214;19.354;2022-11-20T03:12:24;128.10;;;82.43;;
40284;SDS011;25997;50.214;19.354;2022-11-20T03:15:26;117.85;;;77.13;;
40284;SDS011;25997;50.214;19.354;2022-11-20T03:18:29;127.50;;;80.78;;
40284;SDS011;25997;50.214;19.354;2022-11-20T03:21:32;133.60;;;88.97;;
40284;SDS011;25997;50.214;19.354;2022-11-20T03:24:35;174.07;;;108.72;;
40284;SDS011;25997;50.214;19.354;2022-11-20T03:27:39;184.45;;;122.60;;
40284;SDS011;25997;50.214;19.354;2022-11-20T03:30:41;117.90;;;76.63;;
40284;SDS011;25997;50.214;19.354;2022-11-20T03:33:44;130.38;;;82.40;;
40284;SDS011;25997;50.214;19.354;2022-11-20T03:36:47;103.38;;;71.00;;
40284;SDS011;25997;50.214;19.354;2022-11-20T03:39:49;174.80;;;113.63;;
40284;SDS011;25997;50.214;19.354;2022-11-20T03:42:53;159.85;;;108.90;;
40284;SDS011;25997;50.214;19.354;2022-11-20T03:45:56;118.45;;;80.22;;
40284;SDS011;25997;50.214;19.354;2022-11-20T03:48:58;116.05;;;76.68;;
40284;SDS011;25997;50.214;19.354;2022-11-20T03:52:01;96.18;;;61.75;;
40284;SDS011;25997;50.214;19.354;2022-11-20T03:55:04;112.82;;;78.35;;
40284;SDS011;25997;50.214;19.354;2022-11-20T03:58:08;138.10;;;87.53;;
40284;SDS011;25997;50.214;19.354;2022-11-20T04:01:11;158.57;;;105.00;;
40284;SDS011;25997;50.214;19.354;2022-11-20T04:04:15;137.57;;;89.32;;
40284;SDS011;25997;50.214;19.354;2022-11-20T04:07:18;137.25;;;91.10;;
40284;SDS011;25997;50.214;19.354;2022-11-20T04:10:20;157.63;;;113.68;;
40284;SDS011;25997;50.214;19.354;2022-11-20T04:13:24;187.20;;;112.40;;
40284;SDS011;25997;50.214;19.354;2022-11-20T04:16:28;223.70;;;136.63;;
40284;SDS011;25997;50.214;19.354;2022-11-20T04:19:32;159.63;;;104.68;;
40284;SDS011;25997;50.214;19.354;2022-11-20T04:22:34;130.75;;;91.55;;
40284;SDS011;25997;50.214;19.354;2022-11-20T04:25:37;150.43;;;99.28;;
40284;SDS011;25997;50.214;19.354;2022-11-20T04:28:41;138.35;;;90.35;;
40284;SDS011;25997;50.214;19.354;2022-11-20T04:31:43;118.07;;;76.50;;
40284;SDS011;25997;50.214;19.354;2022-11-20T04:34:45;95.10;;;63.65;;
40284;SDS011;25997;50.214;19.354;2022-11-20T04:37:50;69.00;;;48.95;;
40284;SDS011;25997;50.214;19.354;2022-11-20T04:40:55;82.40;;;55.60;;
40284;SDS011;25997;50.214;19.354;2022-11-20T04:44:01;77.32;;;54.75;;
40284;SDS011;25997;50.214;19.354;2022-11-20T04:47:04;99.97;;;65.18;;
40284;SDS011;25997;50.214;19.354;2022-11-20T04:50:07;111.03;;;78.10;;
40284;SDS011;25997;50.214;19.354;2022-11-20T04:53:10;143.75;;;96.75;;
40284;SDS011;25997;50.214;19.354;2022-11-20T04:56:13;196.77;;;128.40;;
40284;SDS011;25997;50.214;19.354;2022-11-20T04:59:17;186.82;;;133.90;;
40284;SDS011;25997;50.214;19.354;2022-11-20T05:02:20;187.82;;;125.32;;
40284;SDS011;25997;50.214;19.354;2022-11-20T05:05:22;178.35;;;127.70;;
40284;SDS011;25997;50.214;19.354;2022-11-20T05:08:25;161.23;;;113.72;;
40284;SDS011;25997;50.214;19.354;2022-11-20T05:11:27;113.68;;;80.55;;
40284;SDS011;25997;50.214;19.354;2022-11-20T05:14:32;231.32;;;131.98;;
40284;SDS011;25997;50.214;19.354;2022-11-20T05:17:34;94.50;;;56.67;;
40284;SDS011;25997;50.214;19.354;2022-11-20T05:20:37;85.75;;;57.05;;
40284;SDS011;25997;50.214;19.354;2022-11-20T05:23:40;127.15;;;83.70;;
40284;SDS011;25997;50.214;19.354;2022-11-20T05:26:43;64.10;;;45.15;;
40284;SDS011;25997;50.214;19.354;2022-11-20T05:29:47;56.22;;;39.63;;
40284;SDS011;25997;50.214;19.354;2022-11-20T05:32:50;42.97;;;30.15;;
40284;SDS011;25997;50.214;19.354;2022-11-20T05:35:52;52.95;;;35.22;;
40284;SDS011;25997;50.214;19.354;2022-11-20T05:38:59;57.10;;;42.03;;
40284;SDS011;25997;50.214;19.354;2022-11-20T05:42:02;53.03;;;37.78;;
40284;SDS011;25997;50.214;19.354;2022-11-20T05:48:25;54.97;;;39.15;;
40284;SDS011;25997;50.214;19.354;2022-11-20T05:51:28;101.43;;;58.17;;
40284;SDS011;25997;50.214;19.354;2022-11-20T05:54:30;55.83;;;39.13;;
40284;SDS011;25997;50.214;19.354;2022-11-20T05:57:33;48.03;;;36.30;;
40284;SDS011;25997;50.214;19.354;2022-11-20T06:00:37;70.15;;;47.22;;
40284;SDS011;25997;50.214;19.354;2022-11-20T06:03:40;110.38;;;65.85;;
40284;SDS011;25997;50.214;19.354;2022-11-20T06:06:46;96.97;;;62.47;;
40284;SDS011;25997;50.214;19.354;2022-11-20T06:09:48;89.65;;;70.50;;
40284;SDS011;25997;50.214;19.354;2022-11-20T06:12:51;100.78;;;66.32;;
40284;SDS011;25997;50.214;19.354;2022-11-20T06:15:55;109.93;;;74.43;;
40284;SDS011;25997;50.214;19.354;2022-11-20T06:18:57;81.72;;;56.63;;
40284;SDS011;25997;50.214;19.354;2022-11-20T06:22:00;133.95;;;86.47;;
40284;SDS011;25997;50.214;19.354;2022-11-20T06:25:02;195.25;;;125.00;;
40284;SDS011;25997;50.214;19.354;2022-11-20T06:28:05;202.98;;;126.45;;
40284;SDS011;25997;50.214;19.354;2022-11-20T06:31:11;105.65;;;67.97;;
40284;SDS011;25997;50.214;19.354;2022-11-20T06:34:15;80.55;;;58.38;;
40284;SDS011;25997;50.214;19.354;2022-11-20T06:37:18;60.85;;;45.35;;
40284;SDS011;25997;50.214;19.354;2022-11-20T06:40:20;75.40;;;58.58;;
40284;SDS011;25997;50.214;19.354;2022-11-20T06:43:23;65.38;;;47.75;;
40284;SDS011;25997;50.214;19.354;2022-11-20T06:46:27;68.88;;;50.65;;
40284;SDS011;25997;50.214;19.354;2022-11-20T06:49:30;59.13;;;44.45;;
40284;SDS011;25997;50.214;19.354;2022-11-20T06:52:32;144.57;;;94.53;;
40284;SDS011;25997;50.214;19.354;2022-11-20T06:55:35;129.63;;;88.55;;
40284;SDS011;25997;50.214;19.354;2022-11-20T06:58:37;84.22;;;59.40;;
40284;SDS011;25997;50.214;19.354;2022-11-20T07:01:41;80.95;;;60.92;;
40284;SDS011;25997;50.214;19.354;2022-11-20T07:04:44;88.80;;;61.75;;
40284;SDS011;25997;50.214;19.354;2022-11-20T07:07:46;94.63;;;65.65;;
40284;SDS011;25997;50.214;19.354;2022-11-20T07:10:49;103.28;;;65.78;;
40284;SDS011;25997;50.214;19.354;2022-11-20T07:13:51;69.53;;;45.47;;
40284;SDS011;25997;50.214;19.354;2022-11-20T07:16:55;122.47;;;79.95;;
40284;SDS011;25997;50.214;19.354;2022-11-20T07:19:58;104.45;;;70.75;;
40284;SDS011;25997;50.214;19.354;2022-11-20T07:23:00;86.03;;;61.38;;
40284;SDS011;25997;50.214;19.354;2022-11-20T07:26:03;58.85;;;45.38;;
40284;SDS011;25997;50.214;19.354;2022-11-20T07:29:07;57.67;;;41.45;;
40284;SDS011;25997;50.214;19.354;2022-11-20T07:32:11;47.75;;;36.85;;
40284;SDS011;25997;50.214;19.354;2022-11-20T07:35:13;86.63;;;59.38;;
40284;SDS011;25997;50.214;19.354;2022-11-20T07:38:16;75.85;;;53.40;;
40284;SDS011;25997;50.214;19.354;2022-11-20T07:41:18;146.40;;;94.07;;
40284;SDS011;25997;50.214;19.354;2022-11-20T07:44:21;281.73;;;175.63;;
40284;SDS011;25997;50.214;19.354;2022-11-20T07:47:25;365.35;;;233.85;;
40284;SDS011;25997;50.214;19.354;2022-11-20T07:50:27;336.95;;;210.65;;
40284;SDS011;25997;50.214;19.354;2022-11-20T07:53:30;280.90;;;162.48;;
40284;SDS011;25997;50.214;19.354;2022-11-20T07:56:33;244.18;;;148.40;;
40284;SDS011;25997;50.214;19.354;2022-11-20T07:59:35;163.88;;;106.40;;
40284;SDS011;25997;50.214;19.354;2022-11-20T08:02:41;121.82;;;81.72;;
40284;SDS011;25997;50.214;19.354;2022-11-20T08:05:44;157.00;;;104.95;;
40284;SDS011;25997;50.214;19.354;2022-11-20T08:08:46;115.47;;;79.03;;
40284;SDS011;25997;50.214;19.354;2022-11-20T08:11:48;108.57;;;77.32;;
40284;SDS011;25997;50.214;19.354;2022-11-20T08:15:09;69.85;;;51.03;;
40284;SDS011;25997;50.214;19.354;2022-11-20T08:18:13;52.25;;;36.95;;
40284;SDS011;25997;50.214;19.354;2022-11-20T08:21:15;58.67;;;42.38;;
40284;SDS011;25997;50.214;19.354;2022-11-20T08:24:18;56.88;;;41.70;;
40284;SDS011;25997;50.214;19.354;2022-11-20T08:27:20;66.35;;;54.00;;
40284;SDS011;25997;50.214;19.354;2022-11-20T08:30:23;75.15;;;56.88;;
40284;SDS011;25997;50.214;19.354;2022-11-20T08:33:27;76.55;;;57.38;;
40284;SDS011;25997;50.214;19.354;2022-11-20T08:36:32;64.22;;;52.97;;
40284;SDS011;25997;50.214;19.354;2022-11-20T08:39:35;62.90;;;49.75;;
40284;SDS011;25997;50.214;19.354;2022-11-20T08:42:45;59.88;;;44.80;;
40284;SDS011;25997;50.214;19.354;2022-11-20T08:45:48;75.60;;;56.03;;
40284;SDS011;25997;50.214;19.354;2022-11-20T08:48:52;60.40;;;45.53;;
40284;SDS011;25997;50.214;19.354;2022-11-20T08:51:54;58.53;;;42.55;;
40284;SDS011;25997;50.214;19.354;2022-11-20T08:54:57;49.25;;;42.42;;
40284;SDS011;25997;50.214;19.354;2022-11-20T08:58:02;66.20;;;49.92;;
40284;SDS011;25997;50.214;19.354;2022-11-20T09:01:05;49.28;;;39.40;;
40284;SDS011;25997;50.214;19.354;2022-11-20T09:04:09;54.60;;;43.45;;
40284;SDS011;25997;50.214;19.354;2022-11-20T09:07:12;46.88;;;38.15;;
40284;SDS011;25997;50.214;19.354;2022-11-20T09:10:14;41.03;;;33.97;;
40284;SDS011;25997;50.214;19.354;2022-11-20T09:13:17;49.42;;;41.88;;
40284;SDS011;25997;50.214;19.354;2022-11-20T09:16:19;53.90;;;43.33;;
40284;SDS011;25997;50.214;19.354;2022-11-20T09:19:24;47.38;;;37.78;;
40284;SDS011;25997;50.214;19.354;2022-11-20T09:22:27;58.13;;;46.20;;
40284;SDS011;25997;50.214;19.354;2022-11-20T09:25:29;46.78;;;37.65;;
40284;SDS011;25997;50.214;19.354;2022-11-20T09:28:32;48.85;;;40.15;;
40284;SDS011;25997;50.214;19.354;2022-11-20T09:31:35;48.72;;;39.38;;
40284;SDS011;25997;50.214;19.354;2022-11-20T09:34:39;55.97;;;43.25;;
40284;SDS011;25997;50.214;19.354;2022-11-20T09:37:41;151.88;;;104.85;;
40284;SDS011;25997;50.214;19.354;2022-11-20T09:40:45;137.65;;;104.05;;
40284;SDS011;25997;50.214;19.354;2022-11-20T09:43:56;175.48;;;118.82;;
40284;SDS011;25997;50.214;19.354;2022-11-20T09:47:07;131.65;;;94.13;;
40284;SDS011;25997;50.214;19.354;2022-11-20T09:50:19;57.97;;;46.15;;
40284;SDS011;25997;50.214;19.354;2022-11-20T09:53:31;51.10;;;43.08;;
40284;SDS011;25997;50.214;19.354;2022-11-20T09:56:43;46.05;;;38.95;;
40284;SDS011;25997;50.214;19.354;2022-11-20T09:59:50;51.28;;;41.88;;
40284;SDS011;25997;50.214;19.354;2022-11-20T10:02:58;55.90;;;44.58;;
40284;SDS011;25997;50.214;19.354;2022-11-20T10:06:07;55.33;;;43.45;;
40284;SDS011;25997;50.214;19.354;2022-11-20T10:09:18;61.67;;;50.50;;
40284;SDS011;25997;50.214;19.354;2022-11-20T10:12:30;81.55;;;69.35;;
40284;SDS011;25997;50.214;19.354;2022-11-20T10:15:45;55.75;;;45.75;;
40284;SDS011;25997;50.214;19.354;2022-11-20T10:18:58;52.38;;;42.53;;
40284;SDS011;25997;50.214;19.354;2022-11-20T10:22:12;48.35;;;39.10;;
40284;SDS011;25997;50.214;19.354;2022-11-20T10:25:25;42.60;;;34.65;;
40284;SDS011;25997;50.214;19.354;2022-11-20T10:28:39;46.00;;;38.50;;
40284;SDS011;25997;50.214;19.354;2022-11-20T10:31:51;38.60;;;33.55;;
40284;SDS011;25997;50.214;19.354;2022-11-20T10:34:59;36.50;;;31.17;;
40284;SDS011;25997;50.214;19.354;2022-11-20T10:38:08;40.25;;;32.88;;
40284;SDS011;25997;50.214;19.354;2022-11-20T10:41:16;41.45;;;33.25;;
40284;SDS011;25997;50.214;19.354;2022-11-20T10:44:28;67.05;;;44.03;;
40284;SDS011;25997;50.214;19.354;2022-11-20T10:47:49;57.42;;;41.58;;
40284;SDS011;25997;50.214;19.354;2022-11-20T10:50:56;51.72;;;38.42;;
40284;SDS011;25997;50.214;19.354;2022-11-20T10:54:15;71.70;;;51.70;;
40284;SDS011;25997;50.214;19.354;2022-11-20T10:57:25;87.28;;;65.95;;
40284;SDS011;25997;50.214;19.354;2022-11-20T11:00:37;52.72;;;41.63;;
40284;SDS011;25997;50.214;19.354;2022-11-20T11:03:40;126.50;;;98.57;;
40284;SDS011;25997;50.214;19.354;2022-11-20T11:06:46;86.82;;;63.40;;
40284;SDS011;25997;50.214;19.354;2022-11-20T11:09:52;54.10;;;41.20;;
40284;SDS011;25997;50.214;19.354;2022-11-20T11:12:56;48.53;;;37.78;;
40284;SDS011;25997;50.214;19.354;2022-11-20T11:15:58;60.78;;;49.83;;
40284;SDS011;25997;50.214;19.354;2022-11-20T11:19:05;56.55;;;46.05;;
40284;SDS011;25997;50.214;19.354;2022-11-20T11:22:09;68.32;;;50.47;;
40284;SDS011;25997;50.214;19.354;2022-11-20T11:25:21;69.82;;;53.83;;
40284;SDS011;25997;50.214;19.354;2022-11-20T11:28:27;103.88;;;68.18;;
40284;SDS011;25997;50.214;19.354;2022-11-20T11:31:30;63.63;;;47.58;;
40284;SDS011;25997;50.214;19.354;2022-11-20T11:34:34;53.95;;;42.03;;
40284;SDS011;25997;50.214;19.354;2022-11-20T11:37:37;47.72;;;38.58;;
40284;SDS011;25997;50.214;19.354;2022-11-20T11:40:43;61.92;;;49.08;;
40284;SDS011;25997;50.214;19.354;2022-11-20T11:43:50;89.40;;;63.00;;
40284;SDS011;25997;50.214;19.354;2022-11-20T11:47:23;78.15;;;54.85;;
40284;SDS011;25997;50.214;19.354;2022-11-20T11:50:28;83.82;;;60.22;;
40284;SDS011;25997;50.214;19.354;2022-11-20T11:53:31;59.15;;;46.78;;
40284;SDS011;25997;50.214;19.354;2022-11-20T11:56:39;53.83;;;43.42;;
40284;SDS011;25997;50.214;19.354;2022-11-20T11:59:44;131.13;;;85.15;;
40284;SDS011;25997;50.214;19.354;2022-11-20T12:02:58;80.57;;;56.10;;
40284;SDS011;25997;50.214;19.354;2022-11-20T12:06:12;59.10;;;44.63;;
40284;SDS011;25997;50.214;19.354;2022-11-20T12:09:16;47.75;;;40.05;;
40284;SDS011;25997;50.214;19.354;2022-11-20T12:12:24;56.05;;;42.00;;
40284;SDS011;25997;50.214;19.354;2022-11-20T12:18:35;49.97;;;39.47;;
40284;SDS011;25997;50.214;19.354;2022-11-20T12:21:41;57.70;;;45.63;;
40284;SDS011;25997;50.214;19.354;2022-11-20T12:24:54;60.85;;;41.90;;
40284;SDS011;25997;50.214;19.354;2022-11-20T12:28:10;64.80;;;45.22;;
40284;SDS011;25997;50.214;19.354;2022-11-20T12:31:37;98.60;;;68.18;;
40284;SDS011;25997;50.214;19.354;2022-11-20T12:34:54;75.57;;;60.72;;
40284;SDS011;25997;50.214;19.354;2022-11-20T12:38:12;73.22;;;55.92;;
40284;SDS011;25997;50.214;19.354;2022-11-20T12:41:35;88.28;;;61.65;;
40284;SDS011;25997;50.214;19.354;2022-11-20T12:48:51;64.35;;;46.90;;
40284;SDS011;25997;50.214;19.354;2022-11-20T12:52:14;56.85;;;46.05;;
40284;SDS011;25997;50.214;19.354;2022-11-20T12:55:36;56.00;;;46.70;;
40284;SDS011;25997;50.214;19.354;2022-11-20T12:58:50;64.55;;;51.47;;
40284;SDS011;25997;50.214;19.354;2022-11-20T13:02:23;69.72;;;56.97;;
40284;SDS011;25997;50.214;19.354;2022-11-20T13:05:31;71.10;;;56.92;;
40284;SDS011;25997;50.214;19.354;2022-11-20T13:08:43;68.78;;;55.53;;
40284;SDS011;25997;50.214;19.354;2022-11-20T13:11:50;67.03;;;53.40;;
40284;SDS011;25997;50.214;19.354;2022-11-20T13:15:05;72.68;;;56.83;;
40284;SDS011;25997;50.214;19.354;2022-11-20T13:18:18;57.42;;;47.28;;
40284;SDS011;25997;50.214;19.354;2022-11-20T13:21:22;73.93;;;54.83;;
40284;SDS011;25997;50.214;19.354;2022-11-20T13:24:37;64.75;;;51.72;;
40284;SDS011;25997;50.214;19.354;2022-11-20T13:27:46;63.97;;;51.03;;
40284;SDS011;25997;50.214;19.354;2022-11-20T13:30:50;63.65;;;53.47;;
40284;SDS011;25997;50.214;19.354;2022-11-20T13:33:55;69.13;;;55.17;;
40284;SDS011;25997;50.214;19.354;2022-11-20T13:36:59;71.88;;;60.47;;
40284;SDS011;25997;50.214;19.354;2022-11-20T13:40:05;72.55;;;58.30;;
40284;SDS011;25997;50.214;19.354;2022-11-20T13:43:22;77.43;;;62.78;;
40284;SDS011;25997;50.214;19.354;2022-11-20T13:46:36;72.60;;;62.20;;
40284;SDS011;25997;50.214;19.354;2022-11-20T13:49:41;82.70;;;70.18;;
40284;SDS011;25997;50.214;19.354;2022-11-20T13:52:47;109.05;;;83.47;;
40284;SDS011;25997;50.214;19.354;2022-11-20T13:55:58;74.50;;;62.42;;
40284;SDS011;25997;50.214;19.354;2022-11-20T13:59:07;83.25;;;74.03;;
40284;SDS011;25997;50.214;19.354;2022-11-20T14:02:19;81.15;;;66.20;;
40284;SDS011;25997;50.214;19.354;2022-11-20T14:05:25;74.82;;;63.60;;
40284;SDS011;25997;50.214;19.354;2022-11-20T14:08:31;79.63;;;66.82;;
40284;SDS011;25997;50.214;19.354;2022-11-20T14:11:45;80.90;;;69.47;;
40284;SDS011;25997;50.214;19.354;2022-11-20T14:14:50;109.32;;;84.65;;
40284;SDS011;25997;50.214;19.354;2022-11-20T14:17:54;170.90;;;109.78;;
40284;SDS011;25997;50.214;19.354;2022-11-20T14:21:01;125.82;;;88.55;;
40284;SDS011;25997;50.214;19.354;2022-11-20T14:24:04;79.13;;;67.13;;
40284;SDS011;25997;50.214;19.354;2022-11-20T14:27:11;81.25;;;65.90;;
40284;SDS011;25997;50.214;19.354;2022-11-20T14:30:16;84.80;;;68.63;;
40284;SDS011;25997;50.214;19.354;2022-11-20T14:33:20;187.07;;;121.70;;
40284;SDS011;25997;50.214;19.354;2022-11-20T14:36:27;127.95;;;96.53;;
40284;SDS011;25997;50.214;19.354;2022-11-20T14:39:30;163.73;;;124.90;;
40284;SDS011;25997;50.214;19.354;2022-11-20T14:42:35;131.30;;;99.65;;
40284;SDS011;25997;50.214;19.354;2022-11-20T14:45:37;109.35;;;85.68;;
40284;SDS011;25997;50.214;19.354;2022-11-20T14:48:41;123.57;;;101.75;;
40284;SDS011;25997;50.214;19.354;2022-11-20T14:51:57;82.55;;;68.38;;
40284;SDS011;25997;50.214;19.354;2022-11-20T14:55:01;75.53;;;60.85;;
40284;SDS011;25997;50.214;19.354;2022-11-20T14:58:04;78.88;;;62.13;;
40284;SDS011;25997;50.214;19.354;2022-11-20T15:01:11;79.10;;;61.67;;
40284;SDS011;25997;50.214;19.354;2022-11-20T15:04:14;78.93;;;57.25;;
40284;SDS011;25997;50.214;19.354;2022-11-20T15:07:28;133.57;;;87.85;;
40284;SDS011;25997;50.214;19.354;2022-11-20T15:10:31;119.97;;;75.43;;
40284;SDS011;25997;50.214;19.354;2022-11-20T15:13:36;137.40;;;84.65;;
40284;SDS011;25997;50.214;19.354;2022-11-20T15:16:40;109.70;;;77.75;;
40284;SDS011;25997;50.214;19.354;2022-11-20T15:19:42;117.50;;;86.97;;
40284;SDS011;25997;50.214;19.354;2022-11-20T15:22:46;104.00;;;74.68;;
40284;SDS011;25997;50.214;19.354;2022-11-20T15:25:49;95.28;;;69.30;;
40284;SDS011;25997;50.214;19.354;2022-11-20T15:28:51;101.03;;;70.63;;
40284;SDS011;25997;50.214;19.354;2022-11-20T15:31:54;113.43;;;79.13;;
40284;SDS011;25997;50.214;19.354;2022-11-20T15:34:57;118.47;;;78.60;;
40284;SDS011;25997;50.214;19.354;2022-11-20T15:38:01;103.18;;;72.43;;
40284;SDS011;25997;50.214;19.354;2022-11-20T15:41:03;87.60;;;63.50;;
40284;SDS011;25997;50.214;19.354;2022-11-20T15:44:06;91.28;;;68.75;;
40284;SDS011;25997;50.214;19.354;2022-11-20T15:47:09;79.72;;;61.17;;
40284;SDS011;25997;50.214;19.354;2022-11-20T15:50:11;82.80;;;62.30;;
40284;SDS011;25997;50.214;19.354;2022-11-20T15:53:20;77.63;;;58.33;;
40284;SDS011;25997;50.214;19.354;2022-11-20T15:56:23;88.32;;;73.22;;
40284;SDS011;25997;50.214;19.354;2022-11-20T15:59:26;87.55;;;69.82;;
40284;SDS011;25997;50.214;19.354;2022-11-20T16:02:29;98.47;;;66.35;;
40284;SDS011;25997;50.214;19.354;2022-11-20T16:05:31;164.13;;;98.25;;
40284;SDS011;25997;50.214;19.354;2022-11-20T16:08:35;85.68;;;70.60;;
40284;SDS011;25997;50.214;19.354;2022-11-20T16:11:38;86.55;;;65.35;;
40284;SDS011;25997;50.214;19.354;2022-11-20T16:14:41;87.10;;;68.13;;
40284;SDS011;25997;50.214;19.354;2022-11-20T16:18:00;87.38;;;68.50;;
40284;SDS011;25997;50.214;19.354;2022-11-20T16:21:03;86.05;;;67.47;;
40284;SDS011;25997;50.214;19.354;2022-11-20T16:24:08;91.63;;;68.47;;
40284;SDS011;25997;50.214;19.354;2022-11-20T16:27:12;113.47;;;74.07;;
40284;SDS011;25997;50.214;19.354;2022-11-20T16:30:14;149.43;;;107.97;;
40284;SDS011;25997;50.214;19.354;2022-11-20T16:33:17;101.10;;;77.50;;
40284;SDS011;25997;50.214;19.354;2022-11-20T16:36:20;103.55;;;78.82;;
40284;SDS011;25997;50.214;19.354;2022-11-20T16:39:25;86.60;;;70.35;;
40284;SDS011;25997;50.214;19.354;2022-11-20T16:42:28;89.32;;;69.20;;
40284;SDS011;25997;50.214;19.354;2022-11-20T16:45:39;91.60;;;72.35;;
40284;SDS011;25997;50.214;19.354;2022-11-20T16:48:43;86.38;;;70.80;;
40284;SDS011;25997;50.214;19.354;2022-11-20T16:51:45;85.63;;;66.90;;
40284;SDS011;25997;50.214;19.354;2022-11-20T16:54:49;87.68;;;69.45;;
40284;SDS011;25997;50.214;19.354;2022-11-20T16:57:52;91.88;;;71.10;;
40284;SDS011;25997;50.214;19.354;2022-11-20T17:00:54;87.55;;;70.10;;
40284;SDS011;25997;50.214;19.354;2022-11-20T17:03:57;109.53;;;85.20;;
40284;SDS011;25997;50.214;19.354;2022-11-20T17:07:01;155.45;;;109.22;;
40284;SDS011;25997;50.214;19.354;2022-11-20T17:10:06;105.75;;;82.80;;
40284;SDS011;25997;50.214;19.354;2022-11-20T17:13:08;108.65;;;84.95;;
40284;SDS011;25997;50.214;19.354;2022-11-20T17:16:12;84.47;;;65.93;;
40284;SDS011;25997;50.214;19.354;2022-11-20T17:19:16;84.15;;;67.10;;
40284;SDS011;25997;50.214;19.354;2022-11-20T17:22:19;99.20;;;79.03;;
40284;SDS011;25997;50.214;19.354;2022-11-20T17:25:23;97.32;;;74.20;;
40284;SDS011;25997;50.214;19.354;2022-11-20T17:28:25;110.93;;;91.78;;
40284;SDS011;25997;50.214;19.354;2022-11-20T17:31:28;96.82;;;78.30;;
40284;SDS011;25997;50.214;19.354;2022-11-20T17:34:32;95.30;;;75.85;;
40284;SDS011;25997;50.214;19.354;2022-11-20T17:37:34;95.15;;;71.57;;
40284;SDS011;25997;50.214;19.354;2022-11-20T17:40:38;87.25;;;68.25;;
40284;SDS011;25997;50.214;19.354;2022-11-20T17:43:41;103.32;;;83.93;;
40284;SDS011;25997;50.214;19.354;2022-11-20T17:46:44;111.47;;;89.00;;
40284;SDS011;25997;50.214;19.354;2022-11-20T17:49:46;88.43;;;69.78;;
40284;SDS011;25997;50.214;19.354;2022-11-20T17:52:48;97.90;;;77.32;;